sensor_id;sensor_type;location;lat;lon;timestamp;pressure;altitude;pressure_sealevel;temperature;humidity
44751;BME280;30477;48.224;11.470;2022-09-09T00:01:33;95862.16;;;15.86;65.85
44751;BME280;30477;48.224;11.470;2022-09-09T00:15:25;95855.75;;;15.89;66.38
44751;BME280;30477;48.224;11.470;2022-09-09T00:18:20;95858.19;;;15.90;66.38
44751;BME280;30477;48.224;11.470;2022-09-09T00:21:08;95852.31;;;15.73;66.93
44751;BME280;30477;48.224;11.470;2022-09-09T00:23:40;95851.53;;;15.73;67.60
44751;BME280;30477;48.224;11.470;2022-09-09T00:26:16;95851.81;;;15.70;67.42
44751;BME280;30477;48.224;11.470;2022-09-09T00:28:50;95855.25;;;15.70;67.54
44751;BME280;30477;48.224;11.470;2022-09-09T00:31:23;95854.97;;;15.65;67.86
44751;BME280;30477;48.224;11.470;2022-09-09T00:33:50;95858.69;;;15.71;68.22
44751;BME280;30477;48.224;11.470;2022-09-09T00:36:20;95857.28;;;15.83;67.41
44751;BME280;30477;48.224;11.470;2022-09-09T00:38:52;95853.13;;;15.74;67.97
44751;BME280;30477;48.224;11.470;2022-09-09T00:44:28;95857.63;;;15.80;67.69
44751;BME280;30477;48.224;11.470;2022-09-09T00:47:15;95850.56;;;15.66;67.53
44751;BME280;30477;48.224;11.470;2022-09-09T00:52:44;95843.72;;;15.65;67.30
44751;BME280;30477;48.224;11.470;2022-09-09T00:55:22;95845.25;;;15.59;67.44
44751;BME280;30477;48.224;11.470;2022-09-09T00:57:52;95841.72;;;15.52;68.24
44751;BME280;30477;48.224;11.470;2022-09-09T01:05:45;95849.38;;;15.30;68.62
44751;BME280;30477;48.224;11.470;2022-09-09T01:11:04;95849.31;;;15.38;68.77
44751;BME280;30477;48.224;11.470;2022-09-09T01:13:34;95857.72;;;15.49;68.56
44751;BME280;30477;48.224;11.470;2022-09-09T01:16:03;95855.84;;;15.57;68.78
44751;BME280;30477;48.224;11.470;2022-09-09T01:18:33;95846.50;;;15.63;68.21
44751;BME280;30477;48.224;11.470;2022-09-09T01:26:30;95853.13;;;15.51;68.54
44751;BME280;30477;48.224;11.470;2022-09-09T01:28:57;95844.94;;;15.54;68.55
44751;BME280;30477;48.224;11.470;2022-09-09T01:31:27;95843.59;;;15.58;68.45
44751;BME280;30477;48.224;11.470;2022-09-09T01:33:54;95841.63;;;15.60;68.18
44751;BME280;30477;48.224;11.470;2022-09-09T01:37:05;95851.09;;;15.61;68.18
44751;BME280;30477;48.224;11.470;2022-09-09T01:39:35;95844.44;;;15.58;67.80
44751;BME280;30477;48.224;11.470;2022-09-09T01:42:02;95850.13;;;15.39;68.26
44751;BME280;30477;48.224;11.470;2022-09-09T01:44:29;95854.06;;;15.35;68.54
44751;BME280;30477;48.224;11.470;2022-09-09T01:46:55;95854.59;;;15.30;69.03
44751;BME280;30477;48.224;11.470;2022-09-09T01:49:21;95850.31;;;15.37;68.90
44751;BME280;30477;48.224;11.470;2022-09-09T01:51:51;95843.53;;;15.28;68.87
44751;BME280;30477;48.224;11.470;2022-09-09T01:54:17;95851.97;;;15.30;69.16
44751;BME280;30477;48.224;11.470;2022-09-09T01:59:50;95856.16;;;15.39;69.28
44751;BME280;30477;48.224;11.470;2022-09-09T02:02:25;95848.34;;;15.39;68.77
44751;BME280;30477;48.224;11.470;2022-09-09T02:05:04;95851.06;;;15.23;68.81
44751;BME280;30477;48.224;11.470;2022-09-09T02:07:40;95838.19;;;15.21;69.00
44751;BME280;30477;48.224;11.470;2022-09-09T02:13:18;95837.66;;;15.26;69.18
44751;BME280;30477;48.224;11.470;2022-09-09T02:18:21;95841.28;;;15.25;69.26
44751;BME280;30477;48.224;11.470;2022-09-09T02:20:49;95840.81;;;15.21;69.23
44751;BME280;30477;48.224;11.470;2022-09-09T02:23:16;95835.56;;;15.45;69.96
44751;BME280;30477;48.224;11.470;2022-09-09T02:25:43;95832.38;;;15.57;68.99
44751;BME280;30477;48.224;11.470;2022-09-09T02:28:10;95830.50;;;15.66;68.80
44751;BME280;30477;48.224;11.470;2022-09-09T02:30:38;95823.88;;;15.78;68.84
44751;BME280;30477;48.224;11.470;2022-09-09T02:33:06;95827.50;;;15.77;68.01
44751;BME280;30477;48.224;11.470;2022-09-09T02:35:34;95830.66;;;15.50;67.94
44751;BME280;30477;48.224;11.470;2022-09-09T02:38:05;95825.69;;;15.40;68.62
44751;BME280;30477;48.224;11.470;2022-09-09T02:40:32;95822.19;;;15.48;68.67
44751;BME280;30477;48.224;11.470;2022-09-09T02:42:58;95823.09;;;15.55;69.00
44751;BME280;30477;48.224;11.470;2022-09-09T02:45:27;95822.41;;;15.61;68.51
44751;BME280;30477;48.224;11.470;2022-09-09T02:47:59;95830.72;;;15.41;68.26
44751;BME280;30477;48.224;11.470;2022-09-09T02:50:35;95828.56;;;15.22;68.47
44751;BME280;30477;48.224;11.470;2022-09-09T02:53:16;95831.22;;;15.14;69.28
44751;BME280;30477;48.224;11.470;2022-09-09T02:55:50;95828.00;;;15.12;69.30
44751;BME280;30477;48.224;11.470;2022-09-09T02:58:18;95829.97;;;15.10;69.25
44751;BME280;30477;48.224;11.470;2022-09-09T03:00:47;95828.34;;;15.09;69.40
44751;BME280;30477;48.224;11.470;2022-09-09T03:03:13;95832.41;;;15.11;69.44
44751;BME280;30477;48.224;11.470;2022-09-09T03:05:38;95825.69;;;15.17;70.00
44751;BME280;30477;48.224;11.470;2022-09-09T03:08:04;95819.41;;;15.26;69.78
44751;BME280;30477;48.224;11.470;2022-09-09T03:10:31;95811.19;;;15.37;69.44
44751;BME280;30477;48.224;11.470;2022-09-09T03:12:56;95810.72;;;15.34;69.37
44751;BME280;30477;48.224;11.470;2022-09-09T03:15:22;95820.47;;;15.40;69.47
44751;BME280;30477;48.224;11.470;2022-09-09T03:17:47;95814.91;;;15.58;69.55
44751;BME280;30477;48.224;11.470;2022-09-09T03:20:12;95819.38;;;15.72;69.61
44751;BME280;30477;48.224;11.470;2022-09-09T03:22:38;95818.72;;;15.70;68.73
44751;BME280;30477;48.224;11.470;2022-09-09T03:25:03;95816.59;;;15.74;68.85
44751;BME280;30477;48.224;11.470;2022-09-09T03:27:29;95818.06;;;15.68;68.41
44751;BME280;30477;48.224;11.470;2022-09-09T03:29:54;95819.53;;;15.71;68.57
44751;BME280;30477;48.224;11.470;2022-09-09T03:32:21;95822.28;;;15.77;68.51
44751;BME280;30477;48.224;11.470;2022-09-09T03:34:48;95817.06;;;15.77;68.76
44751;BME280;30477;48.224;11.470;2022-09-09T03:37:15;95817.25;;;15.91;68.34
44751;BME280;30477;48.224;11.470;2022-09-09T03:39:42;95811.47;;;15.95;68.07
44751;BME280;30477;48.224;11.470;2022-09-09T03:42:07;95811.13;;;15.98;68.33
44751;BME280;30477;48.224;11.470;2022-09-09T03:44:33;95809.31;;;15.99;68.11
44751;BME280;30477;48.224;11.470;2022-09-09T03:46:58;95814.53;;;15.99;67.77
44751;BME280;30477;48.224;11.470;2022-09-09T03:49:25;95817.63;;;15.88;67.89
44751;BME280;30477;48.224;11.470;2022-09-09T03:51:54;95818.88;;;15.92;68.24
44751;BME280;30477;48.224;11.470;2022-09-09T03:54:19;95813.91;;;15.97;68.31
44751;BME280;30477;48.224;11.470;2022-09-09T03:56:44;95808.06;;;15.95;68.21
44751;BME280;30477;48.224;11.470;2022-09-09T03:59:10;95808.88;;;15.95;68.18
44751;BME280;30477;48.224;11.470;2022-09-09T04:01:36;95808.22;;;15.93;68.09
44751;BME280;30477;48.224;11.470;2022-09-09T04:04:01;95801.25;;;15.94;68.01
44751;BME280;30477;48.224;11.470;2022-09-09T04:06:27;95798.00;;;15.92;68.46
44751;BME280;30477;48.224;11.470;2022-09-09T04:08:53;95800.41;;;15.93;68.40
44751;BME280;30477;48.224;11.470;2022-09-09T04:11:19;95803.47;;;15.97;68.30
44751;BME280;30477;48.224;11.470;2022-09-09T04:13:45;95804.91;;;15.99;68.58
44751;BME280;30477;48.224;11.470;2022-09-09T04:16:11;95792.03;;;15.98;68.44
44751;BME280;30477;48.224;11.470;2022-09-09T04:18:38;95801.88;;;15.96;68.36
44751;BME280;30477;48.224;11.470;2022-09-09T04:21:04;95800.88;;;15.97;68.64
44751;BME280;30477;48.224;11.470;2022-09-09T04:23:31;95803.38;;;16.05;68.49
44751;BME280;30477;48.224;11.470;2022-09-09T04:26:00;95799.34;;;16.02;68.37
44751;BME280;30477;48.224;11.470;2022-09-09T04:28:29;95804.34;;;16.04;68.69
44751;BME280;30477;48.224;11.470;2022-09-09T04:30:55;95796.81;;;16.09;68.42
44751;BME280;30477;48.224;11.470;2022-09-09T04:33:23;95792.56;;;16.08;68.16
44751;BME280;30477;48.224;11.470;2022-09-09T04:35:50;95788.97;;;16.09;68.62
44751;BME280;30477;48.224;11.470;2022-09-09T04:38:18;95782.22;;;16.15;68.14
44751;BME280;30477;48.224;11.470;2022-09-09T04:40:46;95784.47;;;16.03;68.38
44751;BME280;30477;48.224;11.470;2022-09-09T04:43:11;95785.19;;;15.97;68.37
44751;BME280;30477;48.224;11.470;2022-09-09T04:45:37;95784.75;;;15.93;68.57
44751;BME280;30477;48.224;11.470;2022-09-09T04:48:02;95787.63;;;15.83;68.62
44751;BME280;30477;48.224;11.470;2022-09-09T04:50:28;95786.38;;;15.79;69.08
44751;BME280;30477;48.224;11.470;2022-09-09T04:52:53;95789.78;;;15.80;69.14
44751;BME280;30477;48.224;11.470;2022-09-09T04:55:19;95784.31;;;15.90;69.31
44751;BME280;30477;48.224;11.470;2022-09-09T04:57:44;95788.19;;;15.94;68.95
44751;BME280;30477;48.224;11.470;2022-09-09T05:00:10;95792.56;;;15.78;68.78
44751;BME280;30477;48.224;11.470;2022-09-09T05:02:39;95789.69;;;15.73;69.33
44751;BME280;30477;48.224;11.470;2022-09-09T05:05:06;95790.25;;;15.83;69.52
44751;BME280;30477;48.224;11.470;2022-09-09T05:07:31;95791.94;;;15.91;68.98
44751;BME280;30477;48.224;11.470;2022-09-09T05:09:57;95787.88;;;15.74;69.02
44751;BME280;30477;48.224;11.470;2022-09-09T05:12:23;95798.50;;;15.72;69.82
44751;BME280;30477;48.224;11.470;2022-09-09T05:14:51;95797.56;;;15.65;69.43
44751;BME280;30477;48.224;11.470;2022-09-09T05:17:16;95794.34;;;15.63;69.91
44751;BME280;30477;48.224;11.470;2022-09-09T05:19:42;95794.97;;;15.65;70.01
44751;BME280;30477;48.224;11.470;2022-09-09T05:22:08;95791.50;;;15.73;70.28
44751;BME280;30477;48.224;11.470;2022-09-09T05:24:33;95799.97;;;15.75;70.23
44751;BME280;30477;48.224;11.470;2022-09-09T05:26:59;95807.44;;;15.78;69.88
44751;BME280;30477;48.224;11.470;2022-09-09T05:29:26;95803.19;;;15.77;69.42
44751;BME280;30477;48.224;11.470;2022-09-09T05:31:52;95806.97;;;15.74;69.92
44751;BME280;30477;48.224;11.470;2022-09-09T05:34:18;95816.69;;;15.80;69.87
44751;BME280;30477;48.224;11.470;2022-09-09T05:36:43;95820.47;;;15.78;69.76
44751;BME280;30477;48.224;11.470;2022-09-09T05:39:08;95823.16;;;15.85;69.79
44751;BME280;30477;48.224;11.470;2022-09-09T05:41:34;95817.25;;;15.91;69.53
44751;BME280;30477;48.224;11.470;2022-09-09T05:44:01;95816.59;;;15.89;69.37
44751;BME280;30477;48.224;11.470;2022-09-09T05:46:27;95813.28;;;15.95;69.37
44751;BME280;30477;48.224;11.470;2022-09-09T05:48:53;95810.75;;;16.01;69.37
44751;BME280;30477;48.224;11.470;2022-09-09T05:51:20;95815.34;;;15.99;68.86
44751;BME280;30477;48.224;11.470;2022-09-09T05:53:47;95813.53;;;16.00;68.98
44751;BME280;30477;48.224;11.470;2022-09-09T05:56:14;95816.16;;;16.00;68.78
44751;BME280;30477;48.224;11.470;2022-09-09T05:58:40;95809.78;;;16.02;68.49
44751;BME280;30477;48.224;11.470;2022-09-09T06:01:13;95803.47;;;16.12;68.92
44751;BME280;30477;48.224;11.470;2022-09-09T06:03:40;95811.13;;;16.13;68.56
44751;BME280;30477;48.224;11.470;2022-09-09T06:06:08;95812.94;;;16.13;68.88
44751;BME280;30477;48.224;11.470;2022-09-09T06:08:34;95817.06;;;16.07;68.93
44751;BME280;30477;48.224;11.470;2022-09-09T06:11:13;95822.47;;;16.06;69.06
44751;BME280;30477;48.224;11.470;2022-09-09T06:13:39;95827.13;;;16.10;69.08
44751;BME280;30477;48.224;11.470;2022-09-09T06:16:06;95819.94;;;16.12;69.03
44751;BME280;30477;48.224;11.470;2022-09-09T06:18:33;95820.03;;;16.19;69.15
44751;BME280;30477;48.224;11.470;2022-09-09T06:21:00;95820.56;;;16.29;69.18
44751;BME280;30477;48.224;11.470;2022-09-09T06:23:27;95808.13;;;16.31;68.79
44751;BME280;30477;48.224;11.470;2022-09-09T06:26:07;95804.16;;;16.35;68.49
44751;BME280;30477;48.224;11.470;2022-09-09T06:28:33;95813.09;;;16.41;68.21
44751;BME280;30477;48.224;11.470;2022-09-09T06:31:00;95810.28;;;16.42;68.30
44751;BME280;30477;48.224;11.470;2022-09-09T06:33:26;95815.31;;;16.44;68.01
44751;BME280;30477;48.224;11.470;2022-09-09T06:35:53;95818.75;;;16.44;67.64
44751;BME280;30477;48.224;11.470;2022-09-09T06:38:18;95824.34;;;16.41;67.92
44751;BME280;30477;48.224;11.470;2022-09-09T06:40:53;95821.09;;;16.39;67.65
44751;BME280;30477;48.224;11.470;2022-09-09T06:43:20;95822.34;;;16.43;67.56
44751;BME280;30477;48.224;11.470;2022-09-09T06:45:59;95823.97;;;16.44;67.98
44751;BME280;30477;48.224;11.470;2022-09-09T06:48:25;95822.81;;;16.47;67.52
44751;BME280;30477;48.224;11.470;2022-09-09T06:53:29;95837.13;;;16.51;67.51
44751;BME280;30477;48.224;11.470;2022-09-09T06:55:54;95852.16;;;16.49;67.57
44751;BME280;30477;48.224;11.470;2022-09-09T06:58:20;95855.41;;;16.51;67.93
44751;BME280;30477;48.224;11.470;2022-09-09T07:00:47;95875.59;;;16.42;68.09
44751;BME280;30477;48.224;11.470;2022-09-09T07:03:13;95900.38;;;16.17;69.24
44751;BME280;30477;48.224;11.470;2022-09-09T07:05:38;95903.38;;;15.91;70.11
44751;BME280;30477;48.224;11.470;2022-09-09T07:08:04;95902.16;;;15.78;71.02
44751;BME280;30477;48.224;11.470;2022-09-09T07:10:29;95898.22;;;15.82;71.87
44751;BME280;30477;48.224;11.470;2022-09-09T07:12:54;95905.88;;;15.84;72.29
44751;BME280;30477;48.224;11.470;2022-09-09T07:15:20;95896.94;;;15.78;72.48
44751;BME280;30477;48.224;11.470;2022-09-09T07:17:48;95905.41;;;15.80;73.20
44751;BME280;30477;48.224;11.470;2022-09-09T07:20:14;95892.94;;;15.91;73.68
44751;BME280;30477;48.224;11.470;2022-09-09T07:22:40;95907.25;;;15.95;73.78
44751;BME280;30477;48.224;11.470;2022-09-09T07:25:06;95895.19;;;15.94;74.47
44751;BME280;30477;48.224;11.470;2022-09-09T07:27:32;95896.09;;;16.01;74.56
44751;BME280;30477;48.224;11.470;2022-09-09T07:29:57;95903.41;;;16.06;75.00
44751;BME280;30477;48.224;11.470;2022-09-09T07:32:22;95901.06;;;16.11;75.22
44751;BME280;30477;48.224;11.470;2022-09-09T07:34:48;95901.50;;;16.14;74.96
44751;BME280;30477;48.224;11.470;2022-09-09T07:37:13;95905.75;;;16.15;75.32
44751;BME280;30477;48.224;11.470;2022-09-09T07:39:39;95897.63;;;16.10;75.62
44751;BME280;30477;48.224;11.470;2022-09-09T07:42:05;95897.56;;;16.18;75.98
44751;BME280;30477;48.224;11.470;2022-09-09T07:44:31;95909.00;;;16.32;76.52
44751;BME280;30477;48.224;11.470;2022-09-09T07:47:00;95901.91;;;16.41;76.35
44751;BME280;30477;48.224;11.470;2022-09-09T07:49:25;95913.94;;;16.42;76.34
44751;BME280;30477;48.224;11.470;2022-09-09T07:51:50;95915.13;;;16.54;76.07
44751;BME280;30477;48.224;11.470;2022-09-09T07:54:17;95917.47;;;16.64;75.80
44751;BME280;30477;48.224;11.470;2022-09-09T07:56:45;95913.69;;;16.67;75.68
44751;BME280;30477;48.224;11.470;2022-09-09T07:59:11;95923.16;;;16.68;75.16
44751;BME280;30477;48.224;11.470;2022-09-09T08:01:39;95918.72;;;16.68;75.30
44751;BME280;30477;48.224;11.470;2022-09-09T08:04:07;95930.16;;;16.52;75.14
44751;BME280;30477;48.224;11.470;2022-09-09T08:06:39;95935.47;;;16.44;76.05
44751;BME280;30477;48.224;11.470;2022-09-09T08:09:06;95930.53;;;16.49;75.95
44751;BME280;30477;48.224;11.470;2022-09-09T08:11:33;95932.88;;;16.44;76.14
44751;BME280;30477;48.224;11.470;2022-09-09T08:13:59;95933.97;;;16.35;76.04
44751;BME280;30477;48.224;11.470;2022-09-09T08:16:27;95935.94;;;16.33;76.30
44751;BME280;30477;48.224;11.470;2022-09-09T08:18:53;95940.44;;;16.39;76.63
44751;BME280;30477;48.224;11.470;2022-09-09T08:21:23;95946.56;;;16.46;76.98
44751;BME280;30477;48.224;11.470;2022-09-09T08:23:51;95949.00;;;16.48;76.87
44751;BME280;30477;48.224;11.470;2022-09-09T08:26:22;95948.75;;;16.42;76.91
44751;BME280;30477;48.224;11.470;2022-09-09T08:28:53;95944.25;;;16.51;77.07
44751;BME280;30477;48.224;11.470;2022-09-09T08:31:21;95940.81;;;16.66;77.11
44751;BME280;30477;48.224;11.470;2022-09-09T08:33:47;95937.75;;;16.77;77.00
44751;BME280;30477;48.224;11.470;2022-09-09T08:36:16;95936.84;;;16.70;76.59
44751;BME280;30477;48.224;11.470;2022-09-09T08:38:43;95937.75;;;16.77;76.49
44751;BME280;30477;48.224;11.470;2022-09-09T08:47:04;95937.19;;;16.96;75.67
44751;BME280;30477;48.224;11.470;2022-09-09T08:52:46;95943.06;;;16.98;74.86
44751;BME280;30477;48.224;11.470;2022-09-09T08:58:05;95938.34;;;17.09;75.10
44751;BME280;30477;48.224;11.470;2022-09-09T09:00:49;95929.16;;;17.13;75.02
44751;BME280;30477;48.224;11.470;2022-09-09T09:12:15;95934.59;;;17.33;74.34
44751;BME280;30477;48.224;11.470;2022-09-09T09:14:41;95938.91;;;17.40;74.46
44751;BME280;30477;48.224;11.470;2022-09-09T09:17:12;95932.91;;;17.47;74.11
44751;BME280;30477;48.224;11.470;2022-09-09T09:19:40;95932.19;;;17.53;74.05
44751;BME280;30477;48.224;11.470;2022-09-09T09:22:18;95931.69;;;17.64;73.93
44751;BME280;30477;48.224;11.470;2022-09-09T09:30:15;95936.78;;;17.72;73.14
44751;BME280;30477;48.224;11.470;2022-09-09T09:32:53;95928.38;;;17.77;72.52
44751;BME280;30477;48.224;11.470;2022-09-09T09:35:19;95930.44;;;17.81;72.44
44751;BME280;30477;48.224;11.470;2022-09-09T09:37:45;95934.69;;;17.82;72.06
44751;BME280;30477;48.224;11.470;2022-09-09T09:40:17;95930.06;;;17.84;71.72
44751;BME280;30477;48.224;11.470;2022-09-09T09:42:57;95934.50;;;17.84;71.24
44751;BME280;30477;48.224;11.470;2022-09-09T09:45:40;95938.13;;;17.83;70.87
44751;BME280;30477;48.224;11.470;2022-09-09T09:48:12;95944.50;;;17.80;70.29
44751;BME280;30477;48.224;11.470;2022-09-09T09:50:51;95947.50;;;17.77;69.86
44751;BME280;30477;48.224;11.470;2022-09-09T09:58:21;95938.03;;;17.76;68.83
44751;BME280;30477;48.224;11.470;2022-09-09T10:00:50;95934.44;;;17.77;68.49
44751;BME280;30477;48.224;11.470;2022-09-09T10:03:37;95934.88;;;17.81;68.31
44751;BME280;30477;48.224;11.470;2022-09-09T10:06:05;95934.88;;;17.81;67.90
44751;BME280;30477;48.224;11.470;2022-09-09T10:08:34;95940.09;;;17.81;67.81
44751;BME280;30477;48.224;11.470;2022-09-09T10:11:10;95934.44;;;17.77;67.38
44751;BME280;30477;48.224;11.470;2022-09-09T10:13:53;95936.66;;;17.80;67.97
44751;BME280;30477;48.224;11.470;2022-09-09T10:19:13;95949.41;;;17.83;68.10
44751;BME280;30477;48.224;11.470;2022-09-09T10:26:55;95935.03;;;18.01;68.02
44751;BME280;30477;48.224;11.470;2022-09-09T10:29:44;95934.69;;;18.04;67.63
44751;BME280;30477;48.224;11.470;2022-09-09T10:32:48;95943.97;;;18.07;67.32
44751;BME280;30477;48.224;11.470;2022-09-09T10:35:35;95942.41;;;18.12;67.42
44751;BME280;30477;48.224;11.470;2022-09-09T10:38:13;95927.31;;;18.14;67.38
44751;BME280;30477;48.224;11.470;2022-09-09T10:41:03;95928.91;;;18.15;67.16
44751;BME280;30477;48.224;11.470;2022-09-09T10:46:41;95929.13;;;18.20;67.15
44751;BME280;30477;48.224;11.470;2022-09-09T10:51:58;95931.25;;;18.32;66.73
44751;BME280;30477;48.224;11.470;2022-09-09T11:00:04;95931.94;;;18.47;66.40
44751;BME280;30477;48.224;11.470;2022-09-09T11:02:32;95932.81;;;18.54;66.16
44751;BME280;30477;48.224;11.470;2022-09-09T11:07:40;95923.75;;;18.57;66.22
44751;BME280;30477;48.224;11.470;2022-09-09T11:10:38;95934.25;;;18.63;66.16
44751;BME280;30477;48.224;11.470;2022-09-09T11:13:20;95925.00;;;18.67;65.70
44751;BME280;30477;48.224;11.470;2022-09-09T11:15:54;95923.22;;;18.75;65.60
44751;BME280;30477;48.224;11.470;2022-09-09T11:18:27;95918.03;;;18.81;65.92
44751;BME280;30477;48.224;11.470;2022-09-09T11:20:59;95918.69;;;18.90;66.08
44751;BME280;30477;48.224;11.470;2022-09-09T11:23:40;95926.78;;;18.95;65.64
44751;BME280;30477;48.224;11.470;2022-09-09T11:26:07;95929.00;;;18.98;64.71
44751;BME280;30477;48.224;11.470;2022-09-09T11:40:17;95920.41;;;19.18;62.93
44751;BME280;30477;48.224;11.470;2022-09-09T11:42:45;95913.53;;;19.17;62.21
44751;BME280;30477;48.224;11.470;2022-09-09T11:45:31;95920.41;;;19.18;61.58
44751;BME280;30477;48.224;11.470;2022-09-09T11:48:00;95914.53;;;19.16;61.24
44751;BME280;30477;48.224;11.470;2022-09-09T11:50:29;95918.56;;;19.12;61.22
44751;BME280;30477;48.224;11.470;2022-09-09T11:55:39;95913.94;;;19.14;60.94
44751;BME280;30477;48.224;11.470;2022-09-09T11:58:14;95920.00;;;19.21;61.32
44751;BME280;30477;48.224;11.470;2022-09-09T12:00:42;95923.22;;;19.23;60.72
44751;BME280;30477;48.224;11.470;2022-09-09T12:06:09;95917.59;;;19.33;59.86
44751;BME280;30477;48.224;11.470;2022-09-09T12:08:36;95921.44;;;19.30;59.53
44751;BME280;30477;48.224;11.470;2022-09-09T12:11:05;95918.38;;;19.20;58.76
44751;BME280;30477;48.224;11.470;2022-09-09T12:13:32;95919.59;;;19.17;58.94
44751;BME280;30477;48.224;11.470;2022-09-09T12:15:58;95918.78;;;19.17;59.57
44751;BME280;30477;48.224;11.470;2022-09-09T12:18:39;95917.16;;;19.16;59.68
44751;BME280;30477;48.224;11.470;2022-09-09T12:23:52;95917.97;;;19.23;59.73
44751;BME280;30477;48.224;11.470;2022-09-09T12:29:05;95905.09;;;19.35;59.91
44751;BME280;30477;48.224;11.470;2022-09-09T12:34:56;95893.63;;;19.56;59.31
44751;BME280;30477;48.224;11.470;2022-09-09T12:37:37;95894.84;;;19.66;59.59
44751;BME280;30477;48.224;11.470;2022-09-09T12:40:26;95887.00;;;19.73;59.02
44751;BME280;30477;48.224;11.470;2022-09-09T12:42:50;95891.06;;;19.82;59.01
44751;BME280;30477;48.224;11.470;2022-09-09T12:45:21;95887.41;;;19.83;58.71
44751;BME280;30477;48.224;11.470;2022-09-09T12:47:51;95890.25;;;19.89;58.26
44751;BME280;30477;48.224;11.470;2022-09-09T12:50:22;95894.06;;;19.86;57.76
44751;BME280;30477;48.224;11.470;2022-09-09T12:52:51;95877.72;;;19.77;56.58
44751;BME280;30477;48.224;11.470;2022-09-09T12:55:21;95879.72;;;19.75;56.24
44751;BME280;30477;48.224;11.470;2022-09-09T12:57:50;95878.13;;;19.74;55.80
44751;BME280;30477;48.224;11.470;2022-09-09T13:00:26;95870.63;;;19.71;55.72
44751;BME280;30477;48.224;11.470;2022-09-09T13:03:00;95873.25;;;19.71;55.49
44751;BME280;30477;48.224;11.470;2022-09-09T13:05:34;95862.97;;;19.76;55.84
44751;BME280;30477;48.224;11.470;2022-09-09T13:08:04;95865.19;;;19.79;55.79
44751;BME280;30477;48.224;11.470;2022-09-09T13:10:33;95852.03;;;19.79;55.91
44751;BME280;30477;48.224;11.470;2022-09-09T13:13:01;95863.97;;;19.75;55.27
44751;BME280;30477;48.224;11.470;2022-09-09T13:15:27;95860.72;;;19.73;55.24
44751;BME280;30477;48.224;11.470;2022-09-09T13:17:55;95853.63;;;19.67;55.19
44751;BME280;30477;48.224;11.470;2022-09-09T13:20:22;95857.09;;;19.67;55.26
44751;BME280;30477;48.224;11.470;2022-09-09T13:22:49;95854.25;;;19.69;55.32
44751;BME280;30477;48.224;11.470;2022-09-09T13:25:25;95844.97;;;19.73;55.36
44751;BME280;30477;48.224;11.470;2022-09-09T13:30:30;95830.66;;;19.82;54.58
44751;BME280;30477;48.224;11.470;2022-09-09T13:33:23;95837.31;;;19.78;54.67
44751;BME280;30477;48.224;11.470;2022-09-09T13:36:14;95835.91;;;19.82;55.31
44751;BME280;30477;48.224;11.470;2022-09-09T13:41:35;95828.03;;;19.82;55.83
44751;BME280;30477;48.224;11.470;2022-09-09T13:44:02;95823.38;;;19.84;55.98
44751;BME280;30477;48.224;11.470;2022-09-09T13:46:36;95823.13;;;19.93;56.10
44751;BME280;30477;48.224;11.470;2022-09-09T13:51:42;95821.94;;;19.95;55.56
44751;BME280;30477;48.224;11.470;2022-09-09T13:54:11;95823.97;;;19.93;55.17
44751;BME280;30477;48.224;11.470;2022-09-09T13:56:38;95821.53;;;19.92;54.78
44751;BME280;30477;48.224;11.470;2022-09-09T13:59:05;95817.50;;;19.89;54.63
44751;BME280;30477;48.224;11.470;2022-09-09T14:01:31;95819.91;;;19.91;54.70
44751;BME280;30477;48.224;11.470;2022-09-09T14:03:56;95810.84;;;19.86;54.81
44751;BME280;30477;48.224;11.470;2022-09-09T14:06:22;95817.50;;;19.82;55.04
44751;BME280;30477;48.224;11.470;2022-09-09T14:08:51;95813.47;;;19.80;55.38
44751;BME280;30477;48.224;11.470;2022-09-09T14:11:17;95814.25;;;19.74;55.35
44751;BME280;30477;48.224;11.470;2022-09-09T14:13:43;95825.97;;;19.64;55.74
44751;BME280;30477;48.224;11.470;2022-09-09T14:16:09;95827.78;;;19.64;56.02
44751;BME280;30477;48.224;11.470;2022-09-09T14:18:35;95839.91;;;19.65;56.35
44751;BME280;30477;48.224;11.470;2022-09-09T14:21:00;95839.72;;;19.60;56.27
44751;BME280;30477;48.224;11.470;2022-09-09T14:23:28;95833.25;;;19.56;56.35
44751;BME280;30477;48.224;11.470;2022-09-09T14:25:54;95834.47;;;19.53;56.64
44751;BME280;30477;48.224;11.470;2022-09-09T14:28:20;95842.34;;;19.46;56.68
44751;BME280;30477;48.224;11.470;2022-09-09T14:30:45;95844.56;;;19.36;56.56
44751;BME280;30477;48.224;11.470;2022-09-09T14:33:14;95848.78;;;19.37;56.80
44751;BME280;30477;48.224;11.470;2022-09-09T14:35:39;95843.53;;;19.44;56.69
44751;BME280;30477;48.224;11.470;2022-09-09T14:38:06;95844.94;;;19.40;56.51
44751;BME280;30477;48.224;11.470;2022-09-09T14:40:33;95846.16;;;19.37;56.44
44751;BME280;30477;48.224;11.470;2022-09-09T14:42:59;95844.13;;;19.39;56.58
44751;BME280;30477;48.224;11.470;2022-09-09T14:45:24;95850.78;;;19.35;56.82
44751;BME280;30477;48.224;11.470;2022-09-09T14:47:51;95846.75;;;19.33;56.75
44751;BME280;30477;48.224;11.470;2022-09-09T14:50:17;95845.34;;;19.30;56.79
44751;BME280;30477;48.224;11.470;2022-09-09T14:52:43;95850.59;;;19.30;56.64
44751;BME280;30477;48.224;11.470;2022-09-09T14:55:08;95854.63;;;19.26;56.63
44751;BME280;30477;48.224;11.470;2022-09-09T14:57:34;95855.84;;;19.23;56.60
44751;BME280;30477;48.224;11.470;2022-09-09T15:00:01;95853.41;;;19.22;56.42
44751;BME280;30477;48.224;11.470;2022-09-09T15:02:27;95861.03;;;19.17;56.45
44751;BME280;30477;48.224;11.470;2022-09-09T15:04:52;95865.06;;;19.13;56.25
44751;BME280;30477;48.224;11.470;2022-09-09T15:07:22;95862.25;;;19.08;56.50
44751;BME280;30477;48.224;11.470;2022-09-09T15:09:48;95849.56;;;19.11;56.20
44751;BME280;30477;48.224;11.470;2022-09-09T15:12:14;95847.31;;;19.15;56.41